createdAt,value
2023-05-13T00:00:44.569Z,0.4
2023-05-13T00:03:45.064Z,0.3
2023-05-13T00:06:44.624Z,0.2
2023-05-13T00:09:44.623Z,0.15
2023-05-13T00:12:44.729Z,0.1
2023-05-13T00:15:44.620Z,0.1
2023-05-13T00:18:44.704Z,0
2023-05-13T00:21:44.616Z,0
2023-05-13T00:24:44.650Z,0.2
2023-05-13T00:27:44.611Z,0.3
2023-05-13T00:30:44.724Z,0.4
2023-05-13T00:33:44.659Z,0.35
2023-05-13T00:36:44.644Z,0.45
2023-05-13T00:39:44.656Z,0.35
2023-05-13T00:42:44.642Z,0.25
2023-05-13T00:45:44.835Z,0.2
2023-05-13T00:48:44.746Z,0.25
2023-05-13T00:51:44.622Z,0.2
2023-05-13T00:54:44.592Z,0.05
2023-05-13T00:57:44.608Z,0.1
2023-05-13T01:00:44.711Z,0
2023-05-13T01:03:44.762Z,0
2023-05-13T01:06:44.597Z,0
2023-05-13T01:09:44.685Z,0
2023-05-13T01:12:44.798Z,0.1
2023-05-13T01:15:44.605Z,0.2
2023-05-13T01:18:44.945Z,0.35
2023-05-13T01:21:44.694Z,0.65
2023-05-13T01:24:44.723Z,0.65
2023-05-13T01:27:44.739Z,0.9
2023-05-13T01:30:44.701Z,0.25
2023-05-13T01:33:44.613Z,0.55
2023-05-13T01:36:44.705Z,0.85
2023-05-13T01:39:44.806Z,0.65
2023-05-13T01:42:44.720Z,0.7
2023-05-13T01:45:44.834Z,1.1
2023-05-13T01:48:44.693Z,1
2023-05-13T01:51:44.667Z,0.85
2023-05-13T01:54:44.702Z,1.15
2023-05-13T01:57:44.793Z,0.7
2023-05-13T02:00:44.797Z,0.7
2023-05-13T02:03:44.848Z,0.7
2023-05-13T02:06:44.683Z,0.75
2023-05-13T02:09:44.773Z,0.25
2023-05-13T02:12:44.746Z,0.55
2023-05-13T02:15:44.709Z,0.6
2023-05-13T02:18:44.838Z,0.65
2023-05-13T02:21:44.992Z,0.6
2023-05-13T02:24:44.707Z,0.35
2023-05-13T02:27:44.729Z,0.4
2023-05-13T02:30:44.795Z,0.45
2023-05-13T02:33:44.667Z,0.7
2023-05-13T02:36:44.695Z,0.25
2023-05-13T02:39:44.827Z,0.3
2023-05-13T02:42:44.762Z,0.4
2023-05-13T02:45:44.891Z,0.3
2023-05-13T02:48:44.768Z,0.15
2023-05-13T02:51:44.888Z,0.35
2023-05-13T02:54:44.989Z,0.1
2023-05-13T02:57:44.782Z,0
2023-05-13T03:00:44.716Z,0.05
2023-05-13T03:03:44.913Z,0.1
2023-05-13T03:06:44.818Z,0
2023-05-13T03:09:44.788Z,0
2023-05-13T03:12:44.812Z,0.2
2023-05-13T03:15:45.888Z,0.2
2023-05-13T03:18:44.891Z,0.1
2023-05-13T03:21:44.799Z,0.35
2023-05-13T03:24:44.757Z,0.2
2023-05-13T03:27:44.801Z,0.4
2023-05-13T03:30:44.831Z,0.4
2023-05-13T03:33:44.808Z,0.45
2023-05-13T03:36:44.873Z,0.1
2023-05-13T03:39:44.789Z,0.1
2023-05-13T03:42:44.932Z,0.1
2023-05-13T03:45:44.947Z,0.25
2023-05-13T03:48:44.797Z,0.25
2023-05-13T03:51:44.880Z,0.2
2023-05-13T03:54:44.880Z,0
2023-05-13T03:57:44.810Z,0
2023-05-13T04:00:45.008Z,0
2023-05-13T04:03:44.760Z,0
2023-05-13T04:06:44.871Z,0.05
2023-05-13T04:09:44.912Z,0.1
2023-05-13T04:12:44.810Z,0.05
2023-05-13T04:15:44.815Z,0.45
2023-05-13T04:18:44.912Z,0.5
2023-05-13T04:21:44.796Z,0.25
2023-05-13T04:24:44.765Z,0.2
2023-05-13T04:27:44.974Z,0.3
2023-05-13T04:30:44.932Z,0.4
2023-05-13T04:33:44.869Z,0.3
2023-05-13T04:36:44.798Z,0.45
2023-05-13T04:39:44.801Z,0.4
2023-05-13T04:42:44.946Z,0.65
2023-05-13T04:45:44.904Z,0.3
2023-05-13T04:48:45.302Z,0.15
2023-05-13T04:51:45.491Z,0
2023-05-13T04:54:44.790Z,0
2023-05-13T04:57:44.855Z,0.05
2023-05-13T05:00:44.937Z,0.4
2023-05-13T05:03:45.007Z,0.15
2023-05-13T05:06:44.890Z,0.25
2023-05-13T05:09:44.919Z,0.2
2023-05-13T05:12:44.922Z,0.25
2023-05-13T05:15:44.936Z,0.15
2023-05-13T05:18:45.116Z,0.45
2023-05-13T05:21:45.078Z,0.65
2023-05-13T05:24:44.900Z,0.75
2023-05-13T05:27:44.956Z,0.15
2023-05-13T05:30:44.934Z,0.3
2023-05-13T05:33:44.907Z,0.3
2023-05-13T05:36:44.874Z,0.4
2023-05-13T05:39:45.001Z,0.45
2023-05-13T05:42:44.911Z,0.5
2023-05-13T05:45:45.119Z,1
2023-05-13T05:48:45.015Z,0.95
2023-05-13T05:51:44.929Z,0.85
2023-05-13T05:54:44.863Z,0.9
2023-05-13T05:57:44.830Z,0.55
2023-05-13T06:00:44.965Z,0.65
2023-05-13T06:03:45.155Z,0.9
2023-05-13T06:06:45.084Z,0.55
2023-05-13T06:09:45.038Z,0.95
2023-05-13T06:12:44.945Z,0.4
2023-05-13T06:15:45.131Z,0.8
2023-05-13T06:18:45.140Z,0.6
2023-05-13T06:21:45.229Z,1.1
2023-05-13T06:24:44.952Z,1.05
2023-05-13T06:27:45.018Z,0.55
2023-05-13T06:30:44.957Z,0.8
2023-05-13T06:33:45.109Z,0.9
2023-05-13T06:36:44.987Z,0.8
2023-05-13T06:39:45.046Z,0.55
2023-05-13T06:42:45.020Z,1.45
2023-05-13T06:45:45.014Z,0.9
2023-05-13T06:48:45.154Z,1.35
2023-05-13T06:51:45.012Z,0.7
2023-05-13T06:54:45.104Z,0.9
2023-05-13T06:57:44.949Z,0.8
2023-05-13T07:00:44.991Z,1.5
2023-05-13T07:03:45.100Z,1.2
2023-05-13T07:06:45.047Z,1.05
2023-05-13T07:09:44.986Z,1.05
2023-05-13T07:12:45.172Z,0.9
2023-05-13T07:15:45.009Z,1.15
2023-05-13T07:18:45.222Z,1
2023-05-13T07:21:45.079Z,1.15
2023-05-13T07:24:45.039Z,1.35
2023-05-13T07:27:45.065Z,1
2023-05-13T07:30:45.144Z,0.8
2023-05-13T07:33:45.137Z,0.75
2023-05-13T07:36:45.087Z,0.65
2023-05-13T07:39:45.073Z,0.4
2023-05-13T07:42:45.085Z,0.7
2023-05-13T07:45:44.951Z,0.4
2023-05-13T07:48:45.108Z,0.55
2023-05-13T07:51:44.993Z,0.45
2023-05-13T07:54:45.100Z,0.35
2023-05-13T07:57:45.083Z,0.6
2023-05-13T08:00:45.146Z,1
2023-05-13T08:03:45.244Z,0.8
2023-05-13T08:06:45.026Z,0.25
2023-05-13T08:09:45.150Z,0.6
2023-05-13T08:12:45.071Z,0.7
2023-05-13T08:15:45.100Z,1.05
2023-05-13T08:18:45.179Z,1.35
2023-05-13T08:21:44.985Z,0.8
2023-05-13T08:24:45.160Z,0.75
2023-05-13T08:27:45.062Z,0.5
2023-05-13T08:30:45.217Z,0.8
2023-05-13T08:33:45.074Z,0.5
2023-05-13T08:36:45.126Z,1.05
2023-05-13T08:39:45.141Z,0.5
2023-05-13T08:42:45.100Z,0.4
2023-05-13T08:45:45.085Z,0.4
2023-05-13T08:48:45.144Z,0.65
2023-05-13T08:51:45.209Z,1.1
2023-05-13T08:54:45.072Z,0.55
2023-05-13T08:57:45.137Z,1.55
2023-05-13T09:00:45.100Z,0.8
2023-05-13T09:03:45.181Z,1.2
2023-05-13T09:06:45.165Z,1
2023-05-13T09:09:45.114Z,0.9
2023-05-13T09:12:45.091Z,1.05
2023-05-13T09:15:45.226Z,1.2
2023-05-13T09:18:45.300Z,1.4
2023-05-13T09:21:45.055Z,1.2
2023-05-13T09:24:45.246Z,1.1
2023-05-13T09:27:45.129Z,1.45
2023-05-13T09:30:47.859Z,1.7
2023-05-13T09:33:45.133Z,0.85
2023-05-13T09:36:45.037Z,0.75
2023-05-13T09:39:45.477Z,0.65
2023-05-13T09:42:45.194Z,0.5
2023-05-13T09:45:45.106Z,0.9
2023-05-13T09:48:45.274Z,0.9
2023-05-13T09:51:45.153Z,0.95
2023-05-13T09:54:45.246Z,0.7
2023-05-13T09:57:45.165Z,1.05
2023-05-13T10:00:45.466Z,0.9
2023-05-13T10:03:45.274Z,1.15
2023-05-13T10:06:45.159Z,0.9
2023-05-13T10:09:45.253Z,0.85
2023-05-13T10:12:45.281Z,0.65
2023-05-13T10:15:45.259Z,0.65
2023-05-13T10:18:45.165Z,0.85
2023-05-13T10:21:45.163Z,0.95
2023-05-13T10:24:45.115Z,1.05
2023-05-13T10:27:45.236Z,1.25
2023-05-13T10:30:45.202Z,0.7
2023-05-13T10:33:45.213Z,0.95
2023-05-13T10:36:45.233Z,1
2023-05-13T10:39:45.208Z,0.85
2023-05-13T10:42:45.228Z,0.65
2023-05-13T10:45:45.198Z,0.45
2023-05-13T10:48:45.245Z,0.7
2023-05-13T10:51:45.185Z,1
2023-05-13T10:54:45.145Z,0.75
2023-05-13T10:57:45.183Z,0.7
2023-05-13T11:00:45.129Z,0.6
2023-05-13T11:03:45.312Z,1.4
2023-05-13T11:06:45.247Z,1.35
2023-05-13T11:09:45.177Z,0.7
2023-05-13T11:12:45.145Z,1.85
2023-05-13T11:15:48.940Z,1.3
2023-05-13T11:18:45.489Z,1.2
2023-05-13T11:21:45.342Z,1.4
2023-05-13T11:24:45.295Z,0.7
2023-05-13T11:27:45.232Z,1.25
2023-05-13T11:30:45.293Z,1.25
2023-05-13T11:33:45.241Z,1.4
2023-05-13T11:36:45.183Z,1.35
2023-05-13T11:39:45.256Z,1.6
2023-05-13T11:42:45.280Z,1.15
2023-05-13T11:45:45.250Z,0.35
2023-05-13T11:48:45.213Z,1.5
2023-05-13T11:51:45.237Z,1.1
2023-05-13T11:54:45.286Z,1.15
2023-05-13T11:57:45.356Z,1.3
2023-05-13T12:00:47.745Z,1
2023-05-13T12:03:45.335Z,0.95
2023-05-13T12:06:45.227Z,1.15
2023-05-13T12:09:45.226Z,1.2
2023-05-13T12:12:45.348Z,1.15
2023-05-13T12:15:45.399Z,1.15
2023-05-13T12:18:47.726Z,1.15
2023-05-13T12:21:45.323Z,1.35
2023-05-13T12:24:45.305Z,0.5
2023-05-13T12:27:45.295Z,0.65
2023-05-13T12:30:45.307Z,0.35
2023-05-13T12:33:45.217Z,0.8
2023-05-13T12:36:45.394Z,0.95
2023-05-13T12:39:45.339Z,0.8
2023-05-13T12:42:45.265Z,0.5
2023-05-13T12:45:46.413Z,0.35
2023-05-13T12:48:45.338Z,0.35
2023-05-13T12:51:45.348Z,0.45
2023-05-13T12:54:45.400Z,0.75
2023-05-13T12:57:45.332Z,0.45
2023-05-13T13:00:45.325Z,0.75
2023-05-13T13:03:45.717Z,0.55
2023-05-13T13:06:45.306Z,0.8
2023-05-13T13:09:45.317Z,0.5
2023-05-13T13:12:45.223Z,0.5
2023-05-13T13:15:45.264Z,0.7
2023-05-13T13:18:45.476Z,0.75
2023-05-13T13:21:45.409Z,0.8
2023-05-13T13:24:45.325Z,0.75
2023-05-13T13:27:45.351Z,0.75
2023-05-13T13:30:45.297Z,1.05
2023-05-13T13:33:45.342Z,0.8
2023-05-13T13:36:45.398Z,0.7
2023-05-13T13:39:45.413Z,0.6
2023-05-13T13:42:46.371Z,1.2
2023-05-13T13:45:45.540Z,0.9
2023-05-13T13:48:45.385Z,0.6
2023-05-13T13:51:45.333Z,0.4
2023-05-13T13:54:46.574Z,0.8
2023-05-13T13:57:45.406Z,1.4
2023-05-13T14:00:45.503Z,0.85
2023-05-13T14:03:45.919Z,1.65
2023-05-13T14:06:45.416Z,0.55
2023-05-13T14:09:45.420Z,0.5
2023-05-13T14:12:45.309Z,0.65
2023-05-13T14:15:45.529Z,1.5
2023-05-13T14:18:45.415Z,1.2
2023-05-13T14:21:45.423Z,0.75
2023-05-13T14:24:45.410Z,0.5
2023-05-13T14:27:45.410Z,1.05
2023-05-13T14:30:45.484Z,0.8
2023-05-13T14:33:45.476Z,1.65
2023-05-13T14:36:45.477Z,0.6
2023-05-13T14:39:47.079Z,0.85
2023-05-13T14:42:45.334Z,0.45
2023-05-13T14:45:45.415Z,1.05
2023-05-13T14:48:45.485Z,0.35
2023-05-13T14:51:45.476Z,1
2023-05-13T14:54:45.434Z,1.35
2023-05-13T14:57:45.417Z,0.6
2023-05-13T15:00:45.623Z,0.7
2023-05-13T15:03:45.560Z,0.7
2023-05-13T15:06:45.346Z,1.15
2023-05-13T15:09:45.416Z,1
2023-05-13T15:12:45.338Z,0.75
2023-05-13T15:15:45.481Z,0.3
2023-05-13T15:18:45.447Z,0.5
2023-05-13T15:21:47.277Z,1.5
2023-05-13T15:24:45.497Z,1.2
2023-05-13T15:27:46.063Z,1.35
2023-05-13T15:30:45.572Z,0.75
2023-05-13T15:33:46.455Z,0.75
2023-05-13T15:36:45.449Z,1
2023-05-13T15:39:45.531Z,1.05
2023-05-13T15:42:45.512Z,0.9
2023-05-13T15:45:45.571Z,1.35
2023-05-13T15:48:45.974Z,0.9
2023-05-13T15:51:45.460Z,1.55
2023-05-13T15:54:45.473Z,0.5
2023-05-13T15:57:45.554Z,1.3
2023-05-13T16:00:45.577Z,0.85
2023-05-13T16:03:45.556Z,0.6
2023-05-13T16:06:45.502Z,1.05
2023-05-13T16:09:45.565Z,1
2023-05-13T16:12:45.583Z,1.4
2023-05-13T16:15:45.569Z,1.2
2023-05-13T16:18:45.611Z,0.7
2023-05-13T16:21:45.502Z,0.75
2023-05-13T16:24:45.495Z,0.85
2023-05-13T16:27:45.851Z,0.65
2023-05-13T16:30:45.449Z,0.9
2023-05-13T16:33:45.604Z,0.55
2023-05-13T16:36:45.904Z,1.1
2023-05-13T16:39:45.509Z,1.1
2023-05-13T16:42:45.549Z,1.1
2023-05-13T16:45:45.447Z,1.2
2023-05-13T16:48:46.054Z,0.85
2023-05-13T16:51:45.425Z,0.65
2023-05-13T16:54:45.454Z,0.45
2023-05-13T16:57:45.525Z,0.45
2023-05-13T17:00:45.837Z,0.75
2023-05-13T17:03:45.573Z,0.65
2023-05-13T17:06:45.563Z,1
2023-05-13T17:09:45.618Z,0.75
2023-05-13T17:12:45.489Z,1.05
2023-05-13T17:15:45.582Z,0.9
2023-05-13T17:18:45.674Z,0.45
2023-05-13T17:21:45.533Z,0.4
2023-05-13T17:24:45.551Z,0.4
2023-05-13T17:27:45.582Z,0.8
2023-05-13T17:30:45.612Z,0.9
2023-05-13T17:33:45.646Z,0.7
2023-05-13T17:36:46.378Z,0.7
2023-05-13T17:39:45.489Z,0.75
2023-05-13T17:42:45.626Z,0.95
2023-05-13T17:45:45.614Z,0.9
2023-05-13T17:48:45.809Z,0.4
2023-05-13T17:51:45.558Z,0.35
2023-05-13T17:54:45.513Z,0.25
2023-05-13T17:57:45.527Z,0.5
2023-05-13T18:00:45.692Z,0.25
2023-05-13T18:03:45.688Z,0.3
2023-05-13T18:06:45.707Z,0.55
2023-05-13T18:09:46.234Z,0.25
2023-05-13T18:12:45.553Z,0.3
2023-05-13T18:15:45.520Z,0.2
2023-05-13T18:18:45.624Z,0.25
2023-05-13T18:21:45.616Z,0.7
2023-05-13T18:24:45.665Z,2.1
2023-05-13T18:27:45.647Z,1.3
2023-05-13T18:30:45.553Z,1.05
2023-05-13T18:33:45.609Z,1.3
2023-05-13T18:36:45.593Z,1.1
2023-05-13T18:39:45.599Z,0.9
2023-05-13T18:42:45.532Z,0.75
2023-05-13T18:45:45.745Z,0.55
2023-05-13T18:48:45.669Z,0.6
2023-05-13T18:51:45.635Z,0.45
2023-05-13T18:54:45.654Z,0.35
2023-05-13T18:57:45.641Z,0.4
2023-05-13T19:00:45.576Z,0.25
2023-05-13T19:03:45.853Z,0.25
2023-05-13T19:06:45.720Z,0.25
2023-05-13T19:09:45.699Z,0.3
2023-05-13T19:12:45.572Z,0.5
2023-05-13T19:15:45.608Z,0.2
2023-05-13T19:18:45.766Z,0.5
2023-05-13T19:21:45.656Z,0.25
2023-05-13T19:24:45.680Z,0.2
2023-05-13T19:27:45.575Z,0.2
2023-05-13T19:30:45.698Z,0.1
2023-05-13T19:33:47.499Z,0
2023-05-13T19:36:45.642Z,0.1
2023-05-13T19:39:45.722Z,1.6
2023-05-13T19:42:45.673Z,0
2023-05-13T19:45:45.736Z,0.2
2023-05-13T19:48:45.776Z,0.15
2023-05-13T19:51:45.776Z,0.05
2023-05-13T19:54:45.731Z,0.05
2023-05-13T19:57:45.601Z,0.1
2023-05-13T20:00:45.715Z,0
2023-05-13T20:03:46.092Z,0
2023-05-13T20:06:45.689Z,0.15
2023-05-13T20:09:46.141Z,0.1
2023-05-13T20:12:45.758Z,0.15
2023-05-13T20:15:45.807Z,0
2023-05-13T20:18:45.951Z,0.2
2023-05-13T20:21:45.789Z,0.4
2023-05-13T20:24:45.641Z,0.25
2023-05-13T20:27:45.726Z,0.25
2023-05-13T20:30:45.678Z,0.2
2023-05-13T20:33:45.815Z,0
2023-05-13T20:36:45.680Z,0
2023-05-13T20:39:45.646Z,0.3
2023-05-13T20:42:45.810Z,0.4
2023-05-13T20:45:45.881Z,0.2
2023-05-13T20:48:45.839Z,0.25
2023-05-13T20:51:45.771Z,0.25
2023-05-13T20:54:45.822Z,0
2023-05-13T20:57:45.740Z,0
2023-05-13T21:00:45.820Z,0.2
2023-05-13T21:03:45.990Z,0
2023-05-13T21:06:45.752Z,0.35
2023-05-13T21:09:45.754Z,0.45
2023-05-13T21:12:45.761Z,0.2
2023-05-13T21:15:45.879Z,0.3
2023-05-13T21:18:45.936Z,0
2023-05-13T21:21:45.740Z,0.15
2023-05-13T21:24:45.709Z,0.4
2023-05-13T21:27:45.832Z,0.15
2023-05-13T21:30:45.779Z,0
2023-05-13T21:33:45.829Z,0
2023-05-13T21:36:45.672Z,0
2023-05-13T21:39:45.780Z,0
2023-05-13T21:42:45.741Z,0
2023-05-13T21:45:45.707Z,0
2023-05-13T21:48:45.823Z,0.45
2023-05-13T21:51:45.738Z,0.8
2023-05-13T21:54:45.788Z,0.95
2023-05-13T21:57:45.813Z,0.85
2023-05-13T22:00:45.827Z,0.8
2023-05-13T22:03:45.816Z,0.95
2023-05-13T22:06:45.756Z,1.05
2023-05-13T22:09:46.043Z,0.85
2023-05-13T22:12:45.749Z,0.4
2023-05-13T22:15:45.845Z,0.3
2023-05-13T22:18:46.187Z,0.05
2023-05-13T22:21:45.828Z,0.2
2023-05-13T22:24:45.859Z,0.3
2023-05-13T22:27:45.873Z,0.2
2023-05-13T22:30:45.884Z,0.1
2023-05-13T22:33:45.916Z,0
2023-05-13T22:36:45.852Z,0
2023-05-13T22:39:45.757Z,0
2023-05-13T22:42:45.850Z,0.25
2023-05-13T22:45:45.766Z,0.15
2023-05-13T22:48:45.905Z,0.05
2023-05-13T22:51:45.832Z,0
2023-05-13T22:54:45.910Z,0
2023-05-13T22:57:45.910Z,0
2023-05-13T23:00:45.797Z,0
2023-05-13T23:03:45.872Z,0
2023-05-13T23:06:45.929Z,0
2023-05-13T23:09:45.855Z,0.4
2023-05-13T23:12:45.843Z,0.25
2023-05-13T23:15:45.914Z,0.2
2023-05-13T23:18:45.993Z,0.15
2023-05-13T23:21:45.845Z,0
2023-05-13T23:24:46.052Z,0.3
2023-05-13T23:27:45.906Z,0.2
2023-05-13T23:30:45.855Z,0.1
2023-05-13T23:33:45.932Z,0
2023-05-13T23:36:45.853Z,0
2023-05-13T23:39:45.933Z,0
2023-05-13T23:42:45.877Z,0
2023-05-13T23:45:45.957Z,0
2023-05-13T23:48:45.902Z,0
2023-05-13T23:51:45.873Z,0
2023-05-13T23:54:45.881Z,0
2023-05-13T23:57:45.882Z,0
